KCIR

Cairo Regional Airport

Cairo, Illinois, USA
METAR KCIR 140815Z AUTO 06006KT 10SM DZ BKN014 OVC020 09/09 A2998 RMK AO2 P0001 T00900087
Observed Flight Rules
Dec-14 @ 08:15 UTC (8 minutes ago) Marginal Visual Flight Rules
Wind Visibility Clouds Conditions
60° at 6 knots 10 miles
  • Broken at 1,400' AGL
  • Overcast at 2,000' AGL
  • Drizzle
Temperatures Readings Precipitation
Current 9°C / 48°F
Dewpoint 9°C / 48°F
Humidity 100%
Altimeter 29.98" Hg
Pressure 1015 hPa
Elevation 98
Current Rain 0.01
METAR KCIR 140815Z AUTO 06006KT 10SM DZ BKN014 OVC020 09/09 A2998 RMK AO2 P0001 T00900087
Observed Flight Rules
Dec-14 @ 08:15 UTC
(8 minutes ago)
MVFR
Wind Visibility
60° at 6 knots 10 miles
Clouds
  • Broken at 1,400' AGL
  • Overcast at 2,000' AGL
Conditions
  • Drizzle
Temperature Dewpoint
9°C / 48°F 9°C / 48°F
Humidity Altimeter Pressure
100% 29.98" Hg 1015 hPa
Current Rain
0.01